Time;durP1;ratioP1;P1;durP2;ratioP2;P2;SDS_P1;SDS_P2;PMS_P1;PMS_P2;Temp;Humidity;BMP_temperature;BMP_pressure;BME280_temperature;BME280_humidity;BME280_pressure;Samples;Min_cycle;Max_cycle;Signal;HPM_P1;HPM_P2
2022/08/11 00:01:59;;;;;;;3.15;2.60;;;;;;;23.74;39.84;102089.09;5092364;28;20036;-66
2022/08/11 00:04:33;;;;;;;4.07;3.22;;;;;;;23.72;39.85;102088.41;5092453;27;20484;-66
2022/08/11 00:07:03;;;;;;;6.17;2.90;;;;;;;23.69;39.74;102088.72;5092555;28;20044;-66
2022/08/11 00:09:32;;;;;;;5.18;2.92;;;;;;;23.65;39.79;102085.44;5092352;28;20375;-66
2022/08/11 00:12:13;;;;;;;5.03;2.80;;;;;;;23.62;39.95;102079.44;5091398;28;20116;-66
2022/08/11 00:14:41;;;;;;;5.30;2.72;;;;;;;23.59;39.87;102083.38;5092420;28;20082;-66
2022/08/11 00:17:11;;;;;;;5.80;2.67;;;;;;;23.58;40.00;102083.53;5091828;28;20058;-66
2022/08/11 00:19:43;;;;;;;5.05;3.03;;;;;;;23.57;40.35;102090.03;5092156;28;20401;-66
2022/08/11 00:22:31;;;;;;;3.40;2.97;;;;;;;23.54;39.98;102082.97;5091972;28;20044;-66
2022/08/11 00:25:07;;;;;;;3.25;2.65;;;;;;;23.54;40.04;102093.94;5091830;28;20044;-66
2022/08/11 00:27:36;;;;;;;6.03;3.00;;;;;;;23.52;40.07;102092.38;5092063;28;20529;-66
2022/08/11 00:30:05;;;;;;;5.55;2.95;;;;;;;23.49;40.16;102085.34;5091966;28;20036;-66
2022/08/11 00:32:32;;;;;;;3.85;3.15;;;;;;;23.48;40.19;102085.50;5091697;28;20040;-66
2022/08/11 00:35:02;;;;;;;5.70;2.78;;;;;;;23.46;40.49;102096.63;5092290;28;20032;-66
2022/08/11 00:37:51;;;;;;;3.22;2.70;;;;;;;23.44;40.37;102091.31;5092004;28;20043;-66
2022/08/11 00:40:27;;;;;;;4.50;2.85;;;;;;;23.42;40.44;102087.00;5091751;28;20046;-66
2022/08/11 00:43:02;;;;;;;4.32;2.97;;;;;;;23.39;40.69;102084.59;5092317;28;20046;-67
2022/08/11 00:45:39;;;;;;;5.05;3.38;;;;;;;23.37;40.36;102084.75;5090504;28;20040;-66
2022/08/11 00:48:23;;;;;;;4.15;2.70;;;;;;;23.34;40.66;102085.09;5091487;28;20036;-66
2022/08/11 00:51:01;;;;;;;7.55;2.90;;;;;;;23.31;40.71;102088.16;5091714;28;20537;-66
2022/08/11 00:53:37;;;;;;;5.63;3.20;;;;;;;23.30;40.95;102083.69;5091610;28;20040;-67
2022/08/11 00:56:41;;;;;;;6.05;3.53;;;;;;;23.27;40.75;102088.63;5091602;28;20486;-66
2022/08/11 00:59:20;;;;;;;5.63;3.28;;;;;;;23.23;40.79;102085.38;5091492;28;20040;-66
2022/08/11 01:02:13;;;;;;;5.30;3.60;;;;;;;23.19;40.80;102086.72;5091354;28;20554;-66
2022/08/11 01:05:02;;;;;;;5.65;3.63;;;;;;;23.12;41.24;102081.00;5091556;28;20060;-66
2022/08/11 01:07:32;;;;;;;7.32;3.13;;;;;;;23.08;40.82;102079.63;5091404;28;20344;-66
2022/08/11 01:10:40;;;;;;;4.90;3.08;;;;;;;23.05;41.10;102076.34;5091392;28;20040;-66
2022/08/11 01:13:14;;;;;;;4.80;3.13;;;;;;;23.02;41.08;102079.38;5091212;28;20047;-66
2022/08/11 01:16:00;;;;;;;4.40;3.63;;;;;;;23.00;41.36;102075.94;5091344;28;20060;-66
2022/08/11 01:18:43;;;;;;;7.15;3.83;;;;;;;22.96;41.12;102080.00;5091757;28;20247;-67
2022/08/11 01:21:16;;;;;;;5.53;4.10;;;;;;;22.91;41.20;102080.47;5091317;28;20275;-67
2022/08/11 01:24:20;;;;;;;3.60;3.22;;;;;;;22.86;41.61;102084.72;5091477;28;20051;-66
2022/08/11 01:27:09;;;;;;;5.00;3.80;;;;;;;22.80;41.35;102088.97;5091129;28;20379;-66
2022/08/11 01:30:09;;;;;;;6.18;3.38;;;;;;;22.76;41.45;102091.13;5091155;27;20051;-66
2022/08/11 01:33:06;;;;;;;4.32;3.42;;;;;;;22.70;41.44;102091.75;5069796;28;20032;-66
2022/08/11 01:35:55;;;;;;;5.20;3.50;;;;;;;22.66;41.50;102092.22;5071350;28;20032;-66
2022/08/11 01:38:54;;;;;;;4.85;3.30;;;;;;;22.62;41.58;102097.16;5071163;28;20048;-66
2022/08/11 01:44:36;;;;;;;6.20;3.50;;;;;;;22.59;41.84;102091.13;5070863;28;20067;-67
2022/08/11 01:44:39;;;;;;;4.13;3.35;;;;;;;22.56;41.57;102092.31;5070791;28;20053;-66
2022/08/11 01:50:41;;;;;;;6.68;3.17;;;;;;;22.48;41.72;102084.03;5090916;28;20032;-66
2022/08/11 01:53:24;;;;;;;6.30;3.20;;;;;;;22.46;41.87;102088.78;5090965;28;20036;-67
2022/08/11 01:56:01;;;;;;;4.13;3.67;;;;;;;22.44;41.96;102085.34;5090835;27;20048;-67
2022/08/11 01:58:41;;;;;;;8.07;4.10;;;;;;;22.42;41.96;102092.88;5091139;28;20044;-66
2022/08/11 02:01:44;;;;;;;5.65;3.53;;;;;;;22.38;42.10;102086.84;5093452;28;20044;-67
2022/08/11 02:04:24;;;;;;;6.88;3.47;;;;;;;22.38;42.01;102086.84;5094483;28;20533;-66
2022/08/11 02:07:21;;;;;;;4.70;3.10;;;;;;;22.35;42.16;102089.03;5074481;28;20050;-67
2022/08/11 02:13:20;;;;;;;5.18;3.70;;;;;;;22.31;42.14;102084.88;5074345;28;20487;-67
2022/08/11 02:16:19;;;;;;;5.20;3.30;;;;;;;22.29;42.05;102086.88;5074291;28;20456;-66
2022/08/11 02:25:23;;;;;;;7.32;4.07;;;;;;;22.23;42.35;102082.03;5094446;28;20193;-67
2022/08/11 02:28:04;;;;;;;4.95;3.17;;;;;;;22.20;42.37;102089.53;5094261;28;20044;-67
2022/08/11 02:30:39;;;;;;;3.67;3.28;;;;;;;22.20;42.67;102094.16;5094156;27;20052;-67
2022/08/11 02:33:22;;;;;;;8.77;3.50;;;;;;;22.18;42.33;102090.69;5094385;28;20039;-67
2022/08/11 02:36:09;;;;;;;8.68;3.78;;;;;;;22.16;42.30;102098.22;5094238;27;20123;-67
2022/08/11 02:38:59;;;;;;;3.75;3.22;;;;;;;22.14;42.72;102083.81;5093384;28;20046;-67
2022/08/11 02:44:23;;;;;;;4.25;3.42;;;;;;;22.09;42.78;102078.81;5073889;28;20044;-67
2022/08/11 02:47:13;;;;;;;4.60;3.22;;;;;;;22.08;42.74;102081.69;5073729;28;20048;-67
2022/08/11 02:49:54;;;;;;;3.65;3.28;;;;;;;22.04;42.81;102086.63;5073661;28;20041;-67
2022/08/11 02:52:35;;;;;;;4.75;3.30;;;;;;;22.04;42.64;102072.06;5073452;28;20041;-66
2022/08/11 02:55:21;;;;;;;5.45;3.72;;;;;;;22.01;43.08;102077.81;5075349;28;20098;-66
2022/08/11 02:59:48;;;;;;;3.90;3.50;;;;;;;21.99;42.97;102079.84;5093807;28;20041;-67
2022/08/11 03:01:57;;;;;;;5.00;3.75;;;;;;;21.97;43.06;102076.41;5079078;28;20036;-67
2022/08/11 03:05:01;;;;;;;4.95;3.30;;;;;;;21.95;42.86;102089.38;5093881;28;20044;-67
2022/08/11 03:07:39;;;;;;;4.55;3.70;;;;;;;21.92;43.20;102084.22;5093563;28;20082;-66
2022/08/11 03:10:33;;;;;;;6.85;4.05;;;;;;;21.87;43.10;102085.53;5093533;28;20052;-67
2022/08/11 03:19:17;;;;;;;8.07;3.95;;;;;;;21.82;43.26;102087.00;5093284;28;20405;-67
2022/08/11 03:21:55;;;;;;;6.13;4.25;;;;;;;21.80;43.49;102087.16;5093150;28;20051;-68
2022/08/11 03:24:53;;;;;;;5.35;3.83;;;;;;;21.79;43.61;102090.03;5093539;28;20059;-67
2022/08/11 03:27:36;;;;;;;5.35;3.85;;;;;;;21.78;43.29;102091.91;5093114;28;20048;-67
2022/08/11 03:30:16;;;;;;;5.90;3.78;;;;;;;21.76;43.53;102083.00;5092484;28;20478;-67
2022/08/11 03:36:11;;;;;;;9.18;4.32;;;;;;;21.74;43.42;102075.97;5092870;28;20044;-67
2022/08/11 03:38:59;;;;;;;6.32;3.70;;;;;;;21.73;43.65;102085.19;5092974;28;20040;-67
2022/08/11 03:41:43;;;;;;;5.60;3.65;;;;;;;21.71;43.86;102081.75;5093015;28;20040;-67
2022/08/11 03:44:58;;;;;;;6.28;3.85;;;;;;;21.68;43.87;102079.31;5093646;28;20074;-66
2022/08/11 03:47:32;;;;;;;7.83;3.97;;;;;;;21.69;43.58;102072.81;5092466;28;20048;-67
2022/08/11 03:50:15;;;;;;;5.10;3.92;;;;;;;21.65;43.81;102079.63;5092655;27;20068;-68
2022/08/11 03:53:09;;;;;;;6.03;4.35;;;;;;;21.61;43.71;102076.31;5092853;28;20048;-67
2022/08/11 03:56:10;;;;;;;7.13;3.83;;;;;;;21.57;43.79;102080.38;5092645;28;20051;-67
2022/08/11 03:59:04;;;;;;;6.50;4.28;;;;;;;21.54;43.86;102076.03;5092546;28;20044;-66
2022/08/11 04:01:57;;;;;;;5.82;4.05;;;;;;;21.52;44.25;102078.06;5092699;28;20044;-66
2022/08/11 04:04:44;;;;;;;4.15;3.75;;;;;;;21.51;44.20;102078.19;5092482;28;20044;-67
2022/08/11 04:07:38;;;;;;;6.57;3.92;;;;;;;21.51;44.03;102080.94;5092397;28;20078;-67
2022/08/11 04:10:42;;;;;;;5.55;4.22;;;;;;;21.48;44.36;102076.63;5092576;28;20055;-68
2022/08/11 04:13:26;;;;;;;6.82;4.45;;;;;;;21.47;44.08;102074.06;5092206;28;20051;-67
2022/08/11 04:16:15;;;;;;;5.78;4.25;;;;;;;21.43;44.26;102075.38;5090909;28;20143;-67
2022/08/11 04:18:44;;;;;;;7.68;4.70;;;;;;;21.42;44.05;102071.78;5092271;28;20067;-67
2022/08/11 04:21:48;;;;;;;5.72;4.50;;;;;;;21.37;44.52;102068.63;5091477;28;20043;-68
2022/08/11 04:24:35;;;;;;;5.90;4.35;;;;;;;21.35;44.19;102078.84;5091381;28;20040;-67
2022/08/11 04:27:24;;;;;;;5.65;4.15;;;;;;;21.34;44.43;102079.84;5092016;28;20047;-67
2022/08/11 04:30:26;;;;;;;5.57;4.45;;;;;;;21.31;44.52;102073.81;5091882;28;20064;-67
2022/08/11 04:33:12;;;;;;;5.45;4.60;;;;;;;21.30;44.75;102083.03;5092012;28;20408;-68
2022/08/11 04:36:14;;;;;;;8.43;5.28;;;;;;;21.24;44.66;102074.41;5091925;28;20041;-67
2022/08/11 04:39:09;;;;;;;6.85;4.90;;;;;;;21.24;44.71;102077.16;5059234;28;20457;-67
2022/08/11 04:45:51;;;;;;;8.00;5.22;;;;;;;21.18;45.00;102074.97;5029157;28;20107;-67
2022/08/11 05:07:09;;;;;;;7.68;5.05;;;;;;;21.17;45.44;102077.88;5091449;28;20051;-67
2022/08/11 05:09:57;;;;;;;7.93;5.75;;;;;;;21.17;45.58;102083.31;5090327;28;20413;-67
2022/08/11 05:12:41;;;;;;;8.98;5.60;;;;;;;21.16;45.52;102078.88;5091126;28;20051;-67
2022/08/11 05:36:34;;;;;;;9.20;5.32;;;;;;;21.53;45.51;102084.38;5095540;28;19927;-66
2022/08/11 05:56:17;;;;;;;7.13;5.15;;;;;;;21.82;46.33;102095.22;5094999;28;20040;-68
2022/08/11 05:58:49;;;;;;;10.73;5.65;;;;;;;21.87;45.90;102093.75;5094859;28;20434;-67
2022/08/11 06:01:25;;;;;;;11.20;5.88;;;;;;;21.93;46.01;102092.28;5093563;28;20048;-67
2022/08/11 06:04:13;;;;;;;7.07;5.13;;;;;;;22.02;45.86;102088.63;5093184;27;20093;-67
2022/08/11 06:06:55;;;;;;;9.88;4.85;;;;;;;22.14;46.05;102095.63;5074583;28;20036;-67
2022/08/11 06:09:33;;;;;;;7.18;4.97;;;;;;;22.25;46.14;102086.34;5074338;28;20051;-67
2022/08/11 06:12:09;;;;;;;10.82;5.65;;;;;;;22.36;45.93;102088.00;5074101;28;20051;-67
2022/08/11 06:14:43;;;;;;;8.13;4.40;;;;;;;22.47;45.99;102096.00;5083638;27;20052;-67
2022/08/11 06:17:12;;;;;;;9.35;5.13;;;;;;;22.58;45.82;102093.00;5094516;28;20098;-67
2022/08/11 06:19:41;;;;;;;4.53;4.07;;;;;;;22.70;45.99;102096.38;5094427;28;20036;-67
2022/08/11 06:22:10;;;;;;;6.13;4.22;;;;;;;22.82;45.67;102097.88;5093854;28;20046;-67
2022/08/11 06:24:49;;;;;;;8.07;4.43;;;;;;;22.95;45.34;102095.59;5093274;28;20505;-67
2022/08/11 06:27:21;;;;;;;7.35;5.28;;;;;;;23.10;45.37;102102.22;5094058;28;20063;-67
2022/08/11 06:29:52;;;;;;;8.52;4.50;;;;;;;23.24;45.31;102103.53;5094405;28;20541;-67
2022/08/11 06:32:31;;;;;;;6.95;4.03;;;;;;;23.37;44.73;102103.94;5094074;28;20483;-69
2022/08/11 06:35:20;;;;;;;8.63;3.85;;;;;;;23.56;44.70;102102.03;5094482;28;20047;-69
2022/08/11 06:38:02;;;;;;;16.98;6.40;;;;;;;23.76;44.59;102104.34;5094535;28;20044;-69
2022/08/11 06:40:39;;;;;;;4.80;3.67;;;;;;;23.99;44.65;102095.56;5093838;28;20039;-67
2022/08/11 06:43:25;;;;;;;5.97;4.20;;;;;;;24.19;44.38;102096.13;5094129;28;20054;-67
2022/08/11 06:46:01;;;;;;;6.55;4.20;;;;;;;24.44;44.42;102100.66;5093322;28;20130;-67
2022/08/11 06:48:31;;;;;;;5.75;3.90;;;;;;;24.63;43.99;102100.38;5093840;28;20040;-68
2022/08/11 06:51:11;;;;;;;7.80;4.75;;;;;;;24.82;43.65;102092.81;5093905;28;20032;-68
2022/08/11 06:53:55;;;;;;;8.52;4.93;;;;;;;24.99;43.16;102100.06;5093848;28;20500;-67
2022/08/11 07:02:50;;;;;;;4.65;3.55;;;;;;;25.58;42.79;102101.50;5093528;28;20058;-66
2022/08/11 07:05:27;;;;;;;7.82;3.53;;;;;;;25.77;42.30;102102.16;5093668;28;20040;-65
2022/08/11 07:17:21;;;;;;;6.93;3.97;;;;;;;26.42;41.35;102101.88;5093628;28;20040;-66
2022/08/11 07:31:42;;;;;;;5.13;2.90;;;;;;;27.29;39.90;102097.72;5093180;28;20036;-66
2022/08/11 07:34:21;;;;;;;4.65;2.83;;;;;;;27.45;39.50;102102.19;5093191;28;20405;-67
2022/08/11 07:37:11;;;;;;;5.05;3.25;;;;;;;27.59;39.29;102103.28;5093340;28;20064;-67
2022/08/11 07:39:38;;;;;;;5.85;2.67;;;;;;;27.76;38.97;102100.16;5093024;28;20047;-66
2022/08/11 07:42:09;;;;;;;8.40;3.50;;;;;;;27.92;38.90;102098.22;5092975;28;20383;-66
2022/08/11 07:48:10;;;;;;;9.45;3.40;;;;;;;28.07;38.61;102091.63;5093272;28;20549;-66
2022/08/11 07:53:04;;;;;;;5.80;2.45;;;;;;;28.63;37.46;102091.03;5092666;28;20046;-67
2022/08/11 07:55:31;;;;;;;5.47;2.70;;;;;;;28.83;37.33;102097.59;5092280;28;20044;-66
2022/08/11 08:18:08;;;;;;;4.13;2.40;;;;;;;30.13;35.00;102089.59;5092338;28;20418;-68
2022/08/11 08:20:55;;;;;;;4.32;2.20;;;;;;;30.24;34.55;102089.00;5092195;28;20055;-68
2022/08/11 08:23:34;;;;;;;3.60;2.35;;;;;;;30.33;34.25;102090.50;5091694;28;20451;-68
2022/08/11 08:26:57;;;;;;;5.78;2.58;;;;;;;30.51;34.04;102091.84;5092095;28;20047;-68
2022/08/11 08:28:53;;;;;;;6.55;2.97;;;;;;;30.72;34.12;102082.53;5090177;28;20079;-66
2022/08/11 08:31:21;;;;;;;5.38;2.80;;;;;;;30.83;33.59;102085.50;5091774;28;20044;-66
2022/08/11 08:33:48;;;;;;;9.20;3.22;;;;;;;30.94;33.51;102086.78;5091150;28;20062;-67
2022/08/11 08:36:17;;;;;;;6.72;2.58;;;;;;;31.06;33.16;102084.22;5091736;28;20040;-66
2022/08/11 08:38:49;;;;;;;5.32;2.45;;;;;;;31.15;32.59;102091.28;5091499;28;20036;-66
2022/08/11 08:41:23;;;;;;;6.32;2.45;;;;;;;31.24;32.69;102090.03;5107093;28;20408;-66
2022/08/11 08:44:01;;;;;;;8.82;2.25;;;;;;;31.36;32.68;102079.97;5108770;28;20044;-67
2022/08/11 08:46:53;;;;;;;4.03;2.50;;;;;;;31.54;32.47;102085.69;5091381;28;20040;-67
2022/08/11 08:49:31;;;;;;;5.15;2.53;;;;;;;31.67;32.40;102086.72;5091379;28;20046;-67
2022/08/11 08:52:02;;;;;;;5.72;2.53;;;;;;;31.83;32.14;102091.81;5091275;28;20044;-67
2022/08/11 08:54:54;;;;;;;3.13;2.45;;;;;;;31.98;31.38;102086.88;5091366;28;20395;-66
2022/08/11 08:57:26;;;;;;;4.95;2.28;;;;;;;32.06;31.18;102085.75;5091200;28;20131;-67
2022/08/11 08:59:54;;;;;;;5.00;2.42;;;;;;;32.15;31.36;102088.06;5091367;28;20045;-67
2022/08/11 09:02:24;;;;;;;3.17;2.60;;;;;;;32.23;30.71;102092.50;5091087;28;20040;-66
2022/08/11 09:05:02;;;;;;;6.22;2.50;;;;;;;32.31;30.48;102086.72;5091237;28;20402;-67
2022/08/11 09:07:30;;;;;;;4.50;2.45;;;;;;;32.39;30.47;102075.34;5090491;28;20501;-66
2022/08/11 09:10:07;;;;;;;5.00;2.35;;;;;;;32.51;30.55;102083.81;5091110;28;20066;-66
2022/08/11 09:12:34;;;;;;;4.32;2.60;;;;;;;32.62;30.05;102082.25;5090981;28;20398;-67
2022/08/11 09:15:08;;;;;;;4.82;2.67;;;;;;;32.68;29.43;102086.91;5090958;28;20497;-66
2022/08/11 09:17:39;;;;;;;3.97;2.42;;;;;;;32.75;29.58;102079.38;5090797;28;20048;-67
2022/08/11 09:20:19;;;;;;;4.22;2.45;;;;;;;32.81;29.51;102081.28;5091176;28;20035;-68
2022/08/11 09:28:33;;;;;;;4.10;2.35;;;;;;;33.01;29.12;102087.53;5090897;28;20399;-67
2022/08/11 09:31:00;;;;;;;5.07;2.22;;;;;;;33.12;28.96;102075.66;5091128;28;20438;-67
2022/08/11 09:33:31;;;;;;;9.90;2.67;;;;;;;33.22;28.46;102075.13;5091139;28;20052;-66
2022/08/11 09:40:27;;;;;;;5.82;2.88;;;;;;;33.27;28.48;102069.72;5088844;28;20127;-68
2022/08/11 09:41:33;;;;;;;3.92;2.25;;;;;;;33.47;28.10;102066.78;5090967;28;20403;-66
2022/08/11 09:47:35;;;;;;;2.60;2.40;;;;;;;33.62;27.77;102067.25;5076664;28;20036;-69
2022/08/11 09:50:02;;;;;;;3.55;2.13;;;;;;;33.68;27.36;102071.03;5090996;28;20044;-70
2022/08/11 09:52:34;;;;;;;3.17;2.30;;;;;;;33.70;27.69;102063.31;5090878;28;20044;-72
2022/08/11 09:55:09;;;;;;;6.22;2.58;;;;;;;33.78;27.51;102055.47;5089606;28;20047;-70
2022/08/11 10:00:39;;;;;;;4.07;2.15;;;;;;;33.99;27.28;102051.38;5091038;28;20031;-70
2022/08/11 10:03:16;;;;;;;5.47;2.30;;;;;;;34.11;26.70;102054.19;5090876;28;20036;-70
2022/08/11 10:08:44;;;;;;;7.13;2.20;;;;;;;34.24;26.84;102045.69;5090068;28;20040;-70
2022/08/11 10:11:15;;;;;;;5.90;2.38;;;;;;;34.30;26.47;102046.66;5090341;28;20036;-70
2022/08/11 10:16:50;;;;;;;3.50;2.20;;;;;;;34.50;26.62;102046.38;5088571;28;20043;-69
2022/08/11 10:19:20;;;;;;;4.07;2.45;;;;;;;34.59;26.32;102031.84;5090005;27;20493;-69
2022/08/11 10:26:49;;;;;;;6.53;2.10;;;;;;;34.68;25.79;102035.97;5091889;28;20051;-69
2022/08/11 10:27:28;;;;;;;5.93;2.55;;;;;;;34.82;25.16;102024.59;5073202;28;20513;-68
2022/08/11 10:34:06;;;;;;;5.25;2.13;;;;;;;34.99;25.13;102029.28;5083573;28;20090;-69
2022/08/11 10:36:06;;;;;;;3.90;2.50;;;;;;;35.16;24.76;102018.22;5093170;28;20070;-69
2022/08/11 10:38:44;;;;;;;3.47;2.40;;;;;;;35.27;24.71;102027.66;5093531;28;20521;-69
2022/08/11 10:44:05;;;;;;;5.28;2.20;;;;;;;35.41;24.18;102019.91;5093854;28;20051;-70
2022/08/11 10:49:19;;;;;;;3.33;1.95;;;;;;;35.62;23.58;102022.03;5093251;27;20048;-69
2022/08/11 11:00:05;;;;;;;2.35;2.15;;;;;;;35.94;22.73;102012.13;5093084;28;20043;-69
2022/08/11 11:02:33;;;;;;;4.40;1.95;;;;;;;36.00;22.82;102015.88;5092990;28;20056;-69
2022/08/11 11:05:19;;;;;;;4.25;1.80;;;;;;;36.04;22.52;102010.63;5093660;28;20075;-70
2022/08/11 11:08:02;;;;;;;2.28;1.63;;;;;;;36.10;22.61;102009.63;5092949;28;20441;-69
2022/08/11 11:10:30;;;;;;;4.88;2.10;;;;;;;36.20;22.63;101998.63;5092891;28;20039;-69
2022/08/11 11:18:36;;;;;;;3.45;2.00;;;;;;;36.35;22.03;101998.09;5092935;28;20044;-69
2022/08/11 11:21:07;;;;;;;6.05;2.60;;;;;;;36.41;21.70;101997.06;5093241;28;20139;-69
2022/08/11 11:24:15;;;;;;;5.00;1.80;;;;;;;36.43;21.17;101986.50;5093116;28;20072;-70
2022/08/11 11:27:02;;;;;;;3.08;1.90;;;;;;;36.51;21.12;101988.88;5092954;28;20060;-70
2022/08/11 11:29:54;;;;;;;3.30;2.10;;;;;;;36.55;21.30;101981.66;5092374;27;20044;-68
2022/08/11 11:33:10;;;;;;;4.18;2.00;;;;;;;36.65;20.93;101979.03;5092625;28;20517;-70
2022/08/11 11:35:56;;;;;;;2.47;1.77;;;;;;;36.77;21.22;101982.63;5069726;28;20109;-70
2022/08/11 11:38:23;;;;;;;4.03;2.10;;;;;;;36.82;21.05;101985.50;5092571;28;20050;-69
2022/08/11 11:41:23;;;;;;;2.83;1.88;;;;;;;36.86;20.66;101983.03;5092994;28;20036;-69
2022/08/11 11:43:37;;;;;;;2.58;1.88;;;;;;;36.87;20.98;101981.91;5092027;28;20040;-71
2022/08/11 11:46:06;;;;;;;4.72;1.90;;;;;;;36.90;20.48;101982.25;5092338;28;20035;-69
2022/08/11 11:48:34;;;;;;;5.45;2.15;;;;;;;36.94;20.41;101971.38;5092059;28;20040;-69
2022/08/11 11:51:02;;;;;;;3.83;2.40;;;;;;;36.96;20.14;101974.78;5092159;28;20118;-70
2022/08/11 11:53:34;;;;;;;5.78;1.90;;;;;;;36.99;19.82;101979.00;5092813;28;20055;-70
2022/08/11 11:56:02;;;;;;;4.50;2.10;;;;;;;37.03;19.78;101972.63;5092227;27;20040;-67
2022/08/11 12:01:19;;;;;;;3.50;1.88;;;;;;;37.10;20.05;101973.28;5092295;28;20032;-67
2022/08/11 12:03:51;;;;;;;2.70;1.92;;;;;;;37.12;19.75;101968.28;5092484;28;20391;-67
2022/08/11 12:06:20;;;;;;;4.03;2.30;;;;;;;37.15;19.76;101964.97;5092190;27;20063;-67
2022/08/11 12:08:49;;;;;;;5.30;2.30;;;;;;;37.25;19.48;101955.06;5091941;28;20498;-67
2022/08/11 12:14:12;;;;;;;4.30;2.00;;;;;;;37.41;19.17;101951.34;5092396;28;20040;-67
2022/08/11 12:16:42;;;;;;;4.07;1.80;;;;;;;37.48;19.54;101952.00;5091787;27;20052;-67
2022/08/11 12:19:13;;;;;;;3.88;2.03;;;;;;;37.55;19.51;101949.84;5091943;28;20040;-67
2022/08/11 12:27:19;;;;;;;2.50;2.03;;;;;;;37.56;19.62;101954.31;5092128;28;20044;-67
2022/08/11 12:27:21;;;;;;;5.65;2.30;;;;;;;37.64;19.31;101937.03;5091897;28;20404;-67
2022/08/11 12:30:04;;;;;;;3.30;1.90;;;;;;;37.70;19.18;101933.22;5091790;28;20493;-67
2022/08/11 12:32:35;;;;;;;2.78;1.80;;;;;;;37.76;18.72;101931.31;5091743;28;20414;-67
2022/08/11 12:35:04;;;;;;;4.97;1.77;;;;;;;37.80;18.44;101924.06;5092124;28;20036;-67
2022/08/11 12:37:35;;;;;;;2.83;1.83;;;;;;;37.84;18.21;101928.03;5091506;28;20122;-67
2022/08/11 12:46:36;;;;;;;4.35;1.90;;;;;;;38.00;18.30;101917.84;5091763;28;20032;-67
2022/08/11 12:52:02;;;;;;;4.78;1.83;;;;;;;38.06;17.90;101903.59;5091307;28;20047;-67
2022/08/11 12:55:01;;;;;;;2.17;1.85;;;;;;;38.14;17.82;101899.44;5091817;27;20473;-66
2022/08/11 13:06:01;;;;;;;2.75;1.80;;;;;;;38.21;17.89;101899.25;5091098;28;20142;-67
2022/08/11 13:08:31;;;;;;;4.43;1.80;;;;;;;38.26;17.73;101894.53;5090919;28;20506;-67
2022/08/11 13:13:53;;;;;;;3.38;1.83;;;;;;;38.27;16.99;101892.56;5091328;28;20371;-67
2022/08/11 13:19:20;;;;;;;6.85;2.05;;;;;;;38.30;17.46;101890.06;5090863;27;20048;-67
2022/08/11 13:21:49;;;;;;;4.70;1.60;;;;;;;38.34;17.03;101885.59;5091096;28;20482;-67
2022/08/11 13:24:17;;;;;;;2.15;1.77;;;;;;;38.41;16.88;101879.75;5091239;27;20048;-67
2022/08/11 13:26:45;;;;;;;2.90;1.60;;;;;;;38.46;16.92;101876.97;5091146;28;20040;-66
2022/08/11 13:29:24;;;;;;;5.85;1.48;;;;;;;38.50;16.40;101869.72;5090838;28;20044;-67
2022/08/11 13:31:53;;;;;;;3.78;1.45;;;;;;;38.59;16.54;101864.44;5091034;28;20071;-67
2022/08/11 13:34:21;;;;;;;7.03;1.50;;;;;;;38.63;16.67;101865.59;5091179;27;20064;-66
2022/08/11 13:36:55;;;;;;;6.25;2.10;;;;;;;38.60;16.63;101861.38;5091211;28;20071;-66
2022/08/11 13:39:25;;;;;;;3.22;2.08;;;;;;;38.60;16.30;101855.75;5091388;28;20040;-67
2022/08/11 13:41:55;;;;;;;4.97;1.75;;;;;;;38.59;16.61;101858.81;5090934;28;20040;-66
2022/08/11 13:44:34;;;;;;;2.47;1.75;;;;;;;38.58;16.13;101852.34;5091001;27;20118;-67
2022/08/11 13:47:03;;;;;;;2.58;1.80;;;;;;;38.59;16.55;101847.59;5090745;28;20041;-67
2022/08/11 13:49:33;;;;;;;3.05;1.60;;;;;;;38.57;16.39;101849.81;5090926;28;20072;-67
2022/08/11 13:52:01;;;;;;;3.95;1.75;;;;;;;38.59;16.12;101850.38;5090720;28;20054;-66
2022/08/11 13:54:34;;;;;;;4.53;1.50;;;;;;;38.60;16.60;101844.53;5090956;28;20044;-66
2022/08/11 13:57:04;;;;;;;4.45;1.60;;;;;;;38.65;16.44;101843.75;5094322;27;20139;-67
2022/08/11 13:59:40;;;;;;;1.90;1.70;;;;;;;38.72;16.54;101841.53;5094794;28;20040;-66
2022/08/11 14:02:22;;;;;;;3.78;2.10;;;;;;;38.78;16.17;101849.72;5094613;28;20082;-67
2022/08/11 14:05:01;;;;;;;1.83;1.60;;;;;;;38.84;16.21;101841.31;5094939;28;20042;-67
2022/08/11 14:07:36;;;;;;;3.50;1.70;;;;;;;38.88;16.60;101829.25;5094493;27;20054;-67
2022/08/11 14:10:06;;;;;;;4.57;1.80;;;;;;;38.93;16.44;101840.50;5094506;28;20406;-67
2022/08/11 14:15:23;;;;;;;4.47;1.63;;;;;;;38.96;16.67;101831.53;5094503;28;20097;-66
2022/08/11 14:17:55;;;;;;;2.90;1.60;;;;;;;38.99;16.59;101825.34;5092948;28;20494;-66
2022/08/11 14:20:23;;;;;;;2.38;1.63;;;;;;;39.03;16.54;101832.13;5094431;28;20059;-66
2022/08/11 14:23:12;;;;;;;4.30;1.63;;;;;;;39.03;16.21;101826.50;5093223;28;20675;-66
2022/08/11 14:26:22;;;;;;;6.28;2.08;;;;;;;38.99;15.86;101822.56;5094397;28;20038;-67
2022/08/11 14:28:32;;;;;;;2.90;1.80;;;;;;;38.96;15.85;101820.28;5094360;28;20130;-67
2022/08/11 14:31:07;;;;;;;2.35;1.40;;;;;;;38.94;16.12;101819.72;5094455;28;20071;-66
2022/08/11 14:33:36;;;;;;;5.57;1.90;;;;;;;38.90;15.75;101815.78;5094637;28;20554;-67
2022/08/11 14:36:25;;;;;;;3.20;1.60;;;;;;;38.91;16.25;101816.63;5094326;28;20245;-67
2022/08/11 14:38:53;;;;;;;2.25;1.30;;;;;;;38.92;16.34;101818.31;5093912;28;20036;-66
2022/08/11 14:47:18;;;;;;;5.05;1.80;;;;;;;38.96;16.34;101814.69;5093845;28;20036;-67
2022/08/11 14:49:53;;;;;;;5.38;1.58;;;;;;;38.89;16.11;101808.47;5093789;28;20497;-67
2022/08/11 14:52:42;;;;;;;3.63;1.60;;;;;;;38.83;16.15;101801.16;5093251;28;20110;-69
2022/08/11 14:57:56;;;;;;;3.33;1.65;;;;;;;38.77;16.00;101802.25;5093434;28;20398;-69
2022/08/11 15:00:24;;;;;;;2.33;1.67;;;;;;;38.74;15.65;101795.22;5093216;28;20063;-69
2022/08/11 15:03:11;;;;;;;2.47;1.63;;;;;;;38.73;15.83;101809.53;5093370;28;20051;-69
2022/08/11 15:05:51;;;;;;;2.90;1.70;;;;;;;38.71;16.04;101794.91;5093675;28;20114;-71
2022/08/11 15:08:53;;;;;;;;;;;;;;;38.71;16.04;101797.72;5093112;28;20044;-69
2022/08/11 15:14:01;;;;;;;3.30;1.73;;;;;;;38.76;15.96;101792.13;5093200;28;20051;-68
2022/08/11 15:19:15;;;;;;;6.43;1.75;;;;;;;38.66;16.49;101783.66;5092412;28;20048;-68
2022/08/11 15:24:27;;;;;;;3.33;1.58;;;;;;;38.64;16.65;101778.28;5093252;28;20040;-67
2022/08/11 15:38:24;;;;;;;3.88;1.60;;;;;;;38.43;16.31;101754.88;5072512;28;20348;-67
2022/08/11 15:46:46;;;;;;;2.90;1.60;;;;;;;38.23;16.38;101757.56;5081883;28;20036;-67
2022/08/11 15:49:28;;;;;;;2.17;1.60;;;;;;;38.15;16.80;101744.91;5091955;27;20044;-69
2022/08/11 15:52:20;;;;;;;2.72;1.67;;;;;;;38.07;16.46;101750.16;5092497;28;20402;-69
2022/08/11 15:54:48;;;;;;;3.92;1.60;;;;;;;37.98;16.38;101751.78;5092348;28;20051;-70
2022/08/11 16:06:15;;;;;;;3.80;1.65;;;;;;;37.41;16.53;101750.44;5092434;28;20048;-69
2022/08/11 16:08:43;;;;;;;2.40;1.50;;;;;;;37.28;16.62;101738.81;5092114;28;20036;-69
2022/08/11 16:11:12;;;;;;;2.33;1.60;;;;;;;37.15;16.64;101737.22;5092198;28;20052;-69
2022/08/11 16:16:13;;;;;;;4.07;1.60;;;;;;;36.98;16.79;101737.34;5091826;28;20040;-69
2022/08/11 16:18:50;;;;;;;3.78;1.60;;;;;;;36.85;17.29;101737.75;5091104;28;20126;-68
2022/08/11 16:21:26;;;;;;;1.52;1.42;;;;;;;36.70;17.07;101732.78;5091511;28;20063;-69
2022/08/11 16:24:10;;;;;;;3.17;1.57;;;;;;;36.56;17.50;101729.53;5092143;28;20040;-69
2022/08/11 16:26:58;;;;;;;2.55;1.70;;;;;;;36.44;17.79;101726.03;5091892;28;20282;-69
2022/08/11 16:29:42;;;;;;;4.43;1.30;;;;;;;36.37;17.67;101718.91;5091833;28;20120;-69
2022/08/11 16:32:17;;;;;;;3.70;1.80;;;;;;;36.25;17.68;101727.38;5091324;28;20397;-68
2022/08/11 16:40:21;;;;;;;4.15;1.77;;;;;;;35.91;17.93;101721.88;5091864;28;20050;-68
2022/08/11 16:48:30;;;;;;;2.15;1.65;;;;;;;35.66;18.13;101715.81;5091502;28;20398;-69
2022/08/11 16:51:09;;;;;;;4.47;1.40;;;;;;;35.55;18.19;101712.03;5091109;28;20035;-68
2022/08/11 16:53:43;;;;;;;1.60;1.30;;;;;;;35.46;18.21;101710.75;5090958;28;20420;-68
2022/08/11 16:56:44;;;;;;;4.43;1.60;;;;;;;35.37;18.12;101709.47;5091534;28;20044;-68